createdAt,value
2022-10-17T00:11:58.695Z,16.35
2022-10-17T00:14:25.343Z,16.28
2022-10-17T00:16:51.907Z,16.21
2022-10-17T00:19:18.530Z,16.24
2022-10-17T00:21:45.128Z,16.20
2022-10-17T00:24:11.672Z,16.24
2022-10-17T00:26:38.233Z,16.24
2022-10-17T00:29:04.852Z,16.22
2022-10-17T00:31:31.953Z,16.24
2022-10-17T00:33:58.571Z,16.24
2022-10-17T00:36:26.696Z,16.24
2022-10-17T00:38:56.687Z,16.20
2022-10-17T00:41:27.367Z,16.22
2022-10-17T00:44:27.783Z,16.25
2022-10-17T00:46:55.018Z,16.34
2022-10-17T00:49:24.742Z,16.35
2022-10-17T00:51:58.842Z,16.35
2022-10-17T00:54:31.397Z,16.42
2022-10-17T00:56:58.657Z,16.34
2022-10-17T00:59:25.882Z,16.39
2022-10-17T01:02:08.469Z,16.41
2022-10-17T01:04:36.946Z,16.41
2022-10-17T01:07:03.562Z,16.46
2022-10-17T01:09:30.547Z,16.36
2022-10-17T01:12:11.744Z,16.41
2022-10-17T01:14:47.009Z,16.38
2022-10-17T01:17:23.940Z,16.29
2022-10-17T01:19:56.517Z,16.28
2022-10-17T01:22:28.028Z,16.25
2022-10-17T01:24:54.775Z,16.21
2022-10-17T01:27:31.573Z,16.15
2022-10-17T01:30:00.796Z,16.20
2022-10-17T01:32:47.485Z,16.20
2022-10-17T01:35:55.761Z,16.17
2022-10-17T01:38:27.394Z,16.20
2022-10-17T01:40:56.763Z,16.22
2022-10-17T01:43:29.440Z,16.21
2022-10-17T01:46:03.433Z,16.24
2022-10-17T01:48:42.077Z,16.36
2022-10-17T01:51:36.342Z,16.31
2022-10-17T01:54:11.429Z,16.17
2022-10-17T01:56:40.039Z,16.20
2022-10-17T01:59:24.953Z,16.20
2022-10-17T02:01:54.231Z,16.20
2022-10-17T02:04:21.419Z,16.21
2022-10-17T02:06:48.101Z,16.15
2022-10-17T02:09:25.992Z,16.32
2022-10-17T02:12:31.139Z,16.36
2022-10-17T02:15:06.627Z,16.36
2022-10-17T02:17:45.246Z,16.39
2022-10-17T02:20:25.554Z,16.41
2022-10-17T02:23:27.515Z,16.41
2022-10-17T02:26:17.705Z,16.43
2022-10-17T02:29:06.085Z,16.46
2022-10-17T02:31:39.672Z,16.45
2022-10-17T02:37:17.444Z,16.58
2022-10-17T02:39:44.731Z,16.58
2022-10-17T02:42:13.476Z,16.55
2022-10-17T02:44:43.435Z,16.59
2022-10-17T02:47:27.491Z,16.56
2022-10-17T02:49:57.062Z,16.58
2022-10-17T02:52:40.241Z,16.61
2022-10-17T02:55:16.134Z,16.71
2022-10-17T02:57:50.264Z,16.80
2022-10-17T03:00:18.841Z,16.76
2022-10-17T03:02:50.917Z,16.83
2022-10-17T03:05:23.679Z,16.84
2022-10-17T03:07:50.461Z,16.80
2022-10-17T03:10:17.849Z,16.92
2022-10-17T03:12:44.552Z,16.96
2022-10-17T03:15:11.640Z,16.99
2022-10-17T03:17:38.962Z,17.08
2022-10-17T03:20:07.017Z,17.06
2022-10-17T03:22:33.771Z,16.99
2022-10-17T03:25:00.307Z,17.07
2022-10-17T03:27:27.012Z,17.07
2022-10-17T03:29:53.790Z,17.07
2022-10-17T03:32:20.391Z,17.02
2022-10-17T03:34:46.930Z,17.04
2022-10-17T03:37:15.487Z,17.04
2022-10-17T03:39:42.041Z,17.07
2022-10-17T03:42:08.653Z,17.10
2022-10-17T03:44:35.185Z,17.07
2022-10-17T03:47:01.760Z,17.21
2022-10-17T03:49:28.286Z,17.18
2022-10-17T03:51:55.007Z,17.23
2022-10-17T03:54:21.577Z,17.15
2022-10-17T03:56:48.141Z,17.13
2022-10-17T03:59:16.039Z,17.21
2022-10-17T04:01:43.001Z,17.17
2022-10-17T04:04:10.139Z,17.18
2022-10-17T04:06:37.897Z,17.20
2022-10-17T04:09:05.416Z,17.14
2022-10-17T04:11:31.974Z,17.10
2022-10-17T04:13:59.759Z,17.14
2022-10-17T04:16:27.022Z,17.18
2022-10-17T04:18:58.954Z,17.21
2022-10-17T04:21:27.661Z,17.20
2022-10-17T04:23:58.771Z,17.24
2022-10-17T04:26:25.829Z,17.18
2022-10-17T04:28:52.465Z,17.23
2022-10-17T04:31:19.331Z,17.20
2022-10-17T04:33:50.171Z,17.20
2022-10-17T04:36:19.333Z,17.18
2022-10-17T04:38:46.216Z,17.27
2022-10-17T04:41:15.862Z,17.26
2022-10-17T04:43:45.520Z,17.13
2022-10-17T04:46:15.736Z,17.18
2022-10-17T04:48:42.650Z,17.14
2022-10-17T04:51:13.663Z,17.11
2022-10-17T04:53:41.597Z,17.07
2022-10-17T04:56:10.487Z,17.03
2022-10-17T04:58:37.733Z,16.99
2022-10-17T05:01:08.575Z,16.97
2022-10-17T05:03:35.941Z,16.94
2022-10-17T05:06:07.354Z,16.94
2022-10-17T05:08:34.506Z,16.84
2022-10-17T05:11:01.201Z,16.89
2022-10-17T05:13:27.973Z,16.92
2022-10-17T05:15:58.037Z,16.90
2022-10-17T05:18:24.629Z,16.89
2022-10-17T05:20:51.194Z,16.87
2022-10-17T05:23:17.719Z,16.84
2022-10-17T05:25:44.300Z,16.83
2022-10-17T05:28:10.896Z,16.83
2022-10-17T05:30:37.776Z,16.89
2022-10-17T05:33:04.571Z,16.89
2022-10-17T05:35:31.333Z,16.87
2022-10-17T05:37:58.978Z,16.87
2022-10-17T05:40:25.669Z,16.83
2022-10-17T05:42:52.390Z,16.87
2022-10-17T05:45:21.945Z,16.89
2022-10-17T05:47:48.546Z,16.86
2022-10-17T05:50:15.274Z,16.99
2022-10-17T05:52:43.919Z,16.99
2022-10-17T05:55:13.130Z,16.97
2022-10-17T05:57:39.673Z,17.00
2022-10-17T06:00:06.806Z,16.87
2022-10-17T06:02:33.666Z,16.92
2022-10-17T06:05:00.442Z,16.94
2022-10-17T06:07:27.126Z,16.94
2022-10-17T06:09:53.721Z,16.93
2022-10-17T06:12:21.236Z,16.92
2022-10-17T06:14:47.781Z,16.90
2022-10-17T06:17:16.168Z,16.99
2022-10-17T06:19:44.722Z,17.06
2022-10-17T06:22:11.717Z,17.13
2022-10-17T06:24:38.338Z,17.24
2022-10-17T06:27:09.385Z,17.23
2022-10-17T06:33:50.334Z,17.45
2022-10-17T06:36:16.993Z,17.58
2022-10-17T06:38:43.558Z,17.61
2022-10-17T06:41:15.019Z,17.54
2022-10-17T06:43:46.296Z,17.50
2022-10-17T06:46:17.995Z,17.50
2022-10-17T06:48:45.233Z,17.58
2022-10-17T06:51:12.912Z,17.63
2022-10-17T06:53:40.438Z,17.68
2022-10-17T06:56:08.410Z,17.81
2022-10-17T06:58:39.132Z,17.85
2022-10-17T07:01:11.301Z,17.85
2022-10-17T07:03:38.970Z,17.99
2022-10-17T07:06:05.987Z,18.09
2022-10-17T07:08:32.713Z,18.24
2022-10-17T07:11:08.358Z,18.68
2022-10-17T07:13:38.935Z,18.64
2022-10-17T07:16:06.867Z,18.60
2022-10-17T07:18:33.955Z,18.52
2022-10-17T07:21:01.035Z,18.55
2022-10-17T07:23:27.707Z,18.81
2022-10-17T07:26:00.431Z,18.67
2022-10-17T07:28:27.912Z,18.70
2022-10-17T07:30:55.368Z,18.68
2022-10-17T07:33:22.304Z,18.60
2022-10-17T07:35:48.983Z,18.72
2022-10-17T07:38:15.808Z,18.71
2022-10-17T07:40:42.730Z,18.75
2022-10-17T07:43:09.441Z,18.96
2022-10-17T07:45:36.127Z,19.20
2022-10-17T07:48:02.861Z,19.49
2022-10-17T07:50:29.728Z,19.85
2022-10-17T07:52:56.434Z,20.14
2022-10-17T07:55:23.137Z,20.00
2022-10-17T07:57:49.775Z,20.08
2022-10-17T08:00:16.464Z,20.29
2022-10-17T08:02:43.042Z,20.09
2022-10-17T08:05:09.749Z,20.19
2022-10-17T08:07:36.343Z,20.30
2022-10-17T08:10:03.622Z,20.45
2022-10-17T08:12:33.016Z,20.49
2022-10-17T08:15:00.767Z,20.59
2022-10-17T08:17:27.294Z,20.42
2022-10-17T08:19:54.150Z,20.52
2022-10-17T08:22:20.924Z,20.56
2022-10-17T08:24:47.556Z,20.62
2022-10-17T08:27:14.465Z,20.56
2022-10-17T08:29:41.264Z,20.67
2022-10-17T08:32:10.022Z,20.88
2022-10-17T08:34:36.883Z,20.67
2022-10-17T08:37:03.938Z,20.67
2022-10-17T08:39:30.692Z,20.75
2022-10-17T08:42:21.199Z,20.67
2022-10-17T08:45:19.110Z,20.55
2022-10-17T08:47:50.116Z,20.63
2022-10-17T08:50:39.332Z,20.56
2022-10-17T08:53:21.012Z,20.08
2022-10-17T08:55:50.015Z,20.11
2022-10-17T08:58:24.264Z,20.14
2022-10-17T09:00:56.841Z,20.22
2022-10-17T09:03:58.487Z,20.18
2022-10-17T09:06:37.934Z,20.48
2022-10-17T09:09:41.651Z,20.39
2022-10-17T09:12:20.630Z,20.90
2022-10-17T09:15:12.492Z,20.48
2022-10-17T09:17:53.839Z,20.22
2022-10-17T09:20:40.777Z,20.11
2022-10-17T09:23:15.880Z,20.19
2022-10-17T09:25:49.750Z,20.22
2022-10-17T09:28:38.600Z,20.18
2022-10-17T09:31:05.375Z,20.21
2022-10-17T09:33:53.980Z,20.25
2022-10-17T09:36:23.694Z,20.19
2022-10-17T09:38:56.528Z,20.19
2022-10-17T09:41:46.370Z,20.11
2022-10-17T09:44:18.359Z,20.19
2022-10-17T09:47:08.860Z,20.11
2022-10-17T09:49:47.113Z,20.05
2022-10-17T09:52:20.662Z,20.07
2022-10-17T09:54:53.370Z,20.05
2022-10-17T09:57:21.969Z,20.02
2022-10-17T09:59:56.331Z,20.07
2022-10-17T10:02:25.110Z,20.11
2022-10-17T10:05:09.028Z,20.07
2022-10-17T10:07:38.873Z,20.18
2022-10-17T10:10:27.139Z,20.18
2022-10-17T10:13:07.197Z,20.32
2022-10-17T10:15:37.968Z,20.35
2022-10-17T10:18:32.773Z,20.48
2022-10-17T10:21:21.021Z,20.49
2022-10-17T10:23:59.867Z,20.52
2022-10-17T10:26:29.678Z,20.66
2022-10-17T10:29:02.199Z,20.59
2022-10-17T10:31:39.905Z,20.63
2022-10-17T10:34:19.091Z,20.65
2022-10-17T10:37:03.793Z,20.70
2022-10-17T10:39:38.228Z,20.73
2022-10-17T10:42:18.194Z,20.75
2022-10-17T10:44:45.296Z,20.76
2022-10-17T10:47:21.313Z,20.80
2022-10-17T10:49:50.305Z,20.80
2022-10-17T10:52:30.596Z,20.86
2022-10-17T10:55:06.952Z,20.90
2022-10-17T10:57:36.754Z,20.98
2022-10-17T11:00:15.800Z,20.96
2022-10-17T11:02:48.770Z,20.94
2022-10-17T11:05:22.084Z,20.94
2022-10-17T11:07:53.570Z,20.90
2022-10-17T11:11:01.398Z,20.80
2022-10-17T11:13:37.804Z,20.86
2022-10-17T11:16:33.587Z,20.83
2022-10-17T11:19:13.887Z,20.76
2022-10-17T11:22:04.557Z,20.73
2022-10-17T11:24:57.324Z,20.75
2022-10-17T11:27:26.271Z,20.77
2022-10-17T11:29:52.899Z,20.81
2022-10-17T11:32:32.995Z,20.79
2022-10-17T11:35:05.426Z,20.80
2022-10-17T11:37:38.903Z,20.79
2022-10-17T11:40:21.869Z,20.80
2022-10-17T11:42:56.447Z,20.81
2022-10-17T11:45:26.007Z,20.79
2022-10-17T11:48:04.288Z,20.91
2022-10-17T11:53:28.890Z,20.98
2022-10-17T11:55:59.453Z,21.01
2022-10-17T11:58:41.929Z,20.97
2022-10-17T12:01:23.896Z,20.98
2022-10-17T12:04:18.454Z,20.98
2022-10-17T12:06:48.001Z,21.06
2022-10-17T12:09:26.218Z,21.08
2022-10-17T12:11:58.310Z,21.14
2022-10-17T12:14:33.787Z,21.08
2022-10-17T12:17:02.010Z,21.10
2022-10-17T12:19:37.595Z,21.06
2022-10-17T12:22:19.214Z,20.98
2022-10-17T12:24:54.281Z,21.04
2022-10-17T12:27:39.994Z,21.04
2022-10-17T12:30:12.519Z,21.00
2022-10-17T12:33:07.356Z,21.03
2022-10-17T12:35:36.875Z,21.04
2022-10-17T12:38:20.613Z,21.08
2022-10-17T12:40:50.113Z,21.07
2022-10-17T12:43:17.133Z,21.13
2022-10-17T12:45:57.166Z,21.13
2022-10-17T12:48:39.040Z,20.97
2022-10-17T12:54:01.945Z,20.98
2022-10-17T12:56:48.660Z,21.01
2022-10-17T12:59:25.669Z,20.97
2022-10-17T13:02:01.380Z,21.01
2022-10-17T13:04:29.660Z,21.07
2022-10-17T13:06:59.258Z,21.10
2022-10-17T13:09:30.663Z,21.07
2022-10-17T13:12:01.284Z,21.14
2022-10-17T13:14:28.594Z,21.10
2022-10-17T13:17:04.157Z,21.18
2022-10-17T13:19:40.221Z,21.20
2022-10-17T13:22:25.113Z,21.24
2022-10-17T13:24:54.121Z,21.31
2022-10-17T13:27:39.021Z,21.34
2022-10-17T13:30:32.093Z,21.34
2022-10-17T13:33:00.764Z,21.37
2022-10-17T13:35:55.739Z,21.39
2022-10-17T13:38:29.685Z,21.42
2022-10-17T13:41:05.901Z,21.49
2022-10-17T13:43:43.373Z,21.46
2022-10-17T13:46:36.769Z,21.55
2022-10-17T13:49:31.089Z,21.61
2022-10-17T13:51:59.228Z,21.55
2022-10-17T13:54:28.628Z,21.58
2022-10-17T13:57:00.655Z,21.66
2022-10-17T13:59:41.244Z,21.86
2022-10-17T14:02:16.345Z,21.79
2022-10-17T14:05:15.092Z,21.85
2022-10-17T14:08:09.359Z,21.95
2022-10-17T14:10:38.952Z,22.04
2022-10-17T14:13:08.412Z,22.02
2022-10-17T14:15:36.824Z,22.00
2022-10-17T14:18:08.316Z,22.09
2022-10-17T14:23:39.266Z,21.99
2022-10-17T14:26:16.596Z,22.06
2022-10-17T14:28:44.399Z,22.08
2022-10-17T14:31:19.956Z,22.02
2022-10-17T14:33:50.788Z,22.02
2022-10-17T14:36:20.232Z,21.92
2022-10-17T14:38:52.185Z,21.96
2022-10-17T14:41:42.400Z,21.90
2022-10-17T14:44:21.587Z,21.85
2022-10-17T14:46:51.704Z,21.78
2022-10-17T14:49:25.359Z,21.76
2022-10-17T14:52:12.383Z,21.71
2022-10-17T14:54:46.618Z,21.69
2022-10-17T14:57:29.100Z,21.64
2022-10-17T14:59:57.233Z,21.66
2022-10-17T15:02:25.916Z,21.66
2022-10-17T15:04:53.275Z,21.66
2022-10-17T15:07:21.287Z,21.65
2022-10-17T15:09:49.661Z,21.66
2022-10-17T15:12:22.062Z,21.68
2022-10-17T15:14:48.813Z,21.61
2022-10-17T15:17:20.873Z,21.64
2022-10-17T15:19:48.798Z,21.58
2022-10-17T15:22:16.348Z,21.61
2022-10-17T15:24:43.591Z,21.59
2022-10-17T15:27:23.169Z,21.58
2022-10-17T15:29:50.643Z,21.48
2022-10-17T15:32:17.210Z,21.37
2022-10-17T15:34:44.656Z,21.39
2022-10-17T15:37:25.248Z,21.32
2022-10-17T15:39:54.576Z,21.34
2022-10-17T15:42:26.551Z,21.39
2022-10-17T15:44:53.447Z,21.31
2022-10-17T15:47:28.990Z,21.31
2022-10-17T15:49:56.073Z,21.23
2022-10-17T15:52:23.581Z,21.20
2022-10-17T15:54:50.248Z,21.04
2022-10-17T15:57:23.292Z,20.93
2022-10-17T15:59:51.582Z,20.86
2022-10-17T16:02:20.351Z,20.86
2022-10-17T16:04:48.212Z,20.83
2022-10-17T16:07:15.169Z,20.66
2022-10-17T16:09:41.822Z,20.66
2022-10-17T16:12:31.186Z,20.59
2022-10-17T16:14:57.860Z,20.52
2022-10-17T16:17:24.529Z,20.53
2022-10-17T16:19:51.171Z,20.50
2022-10-17T16:22:33.267Z,20.32
2022-10-17T16:25:07.751Z,20.11
2022-10-17T16:27:34.755Z,19.80
2022-10-17T16:30:01.465Z,19.57
2022-10-17T16:32:28.439Z,19.42
2022-10-17T16:34:55.170Z,19.26
2022-10-17T16:37:22.126Z,19.08
2022-10-17T16:39:52.609Z,18.95
2022-10-17T16:42:20.905Z,18.88
2022-10-17T16:44:48.918Z,18.81
2022-10-17T16:47:16.945Z,18.71
2022-10-17T16:49:45.486Z,18.65
2022-10-17T16:52:12.231Z,18.61
2022-10-17T16:54:39.118Z,18.55
2022-10-17T16:57:08.630Z,18.48
2022-10-17T16:59:35.387Z,18.44
2022-10-17T17:02:02.018Z,18.37
2022-10-17T17:04:28.848Z,18.24
2022-10-17T17:06:55.450Z,18.23
2022-10-17T17:09:22.079Z,18.17
2022-10-17T17:11:48.919Z,18.16
2022-10-17T17:14:15.700Z,18.03
2022-10-17T17:16:43.486Z,18.00
2022-10-17T17:19:15.295Z,17.96
2022-10-17T17:21:47.660Z,18.00
2022-10-17T17:24:14.396Z,17.92
2022-10-17T17:26:41.713Z,17.91
2022-10-17T17:29:09.139Z,17.89
2022-10-17T17:31:36.037Z,17.86
2022-10-17T17:34:03.471Z,17.92
2022-10-17T17:36:32.914Z,17.83
2022-10-17T17:39:02.196Z,17.79
2022-10-17T17:41:28.892Z,17.79
2022-10-17T17:43:56.598Z,17.78
2022-10-17T17:46:24.055Z,17.76
2022-10-17T17:48:53.986Z,17.78
2022-10-17T17:51:28.308Z,17.79
2022-10-17T17:53:56.873Z,17.78
2022-10-17T18:09:03.430Z,17.78
2022-10-17T18:11:30.137Z,17.73
2022-10-17T18:13:58.977Z,17.78
2022-10-17T18:16:27.266Z,17.72
2022-10-17T18:18:54.698Z,17.68
2022-10-17T18:21:21.868Z,17.72
2022-10-17T18:23:49.781Z,17.66
2022-10-17T18:26:19.741Z,17.71
2022-10-17T18:28:46.646Z,17.69
2022-10-17T18:31:15.732Z,17.66
2022-10-17T18:33:44.700Z,17.59
2022-10-17T18:36:13.345Z,17.54
2022-10-17T18:38:40.333Z,17.61
2022-10-17T18:41:12.371Z,17.61
2022-10-17T18:43:40.810Z,17.63
2022-10-17T18:46:13.883Z,17.65
2022-10-17T18:48:44.575Z,17.59
2022-10-17T18:51:11.895Z,17.61
2022-10-17T18:53:43.369Z,17.54
2022-10-17T18:56:10.748Z,17.45
2022-10-17T18:58:38.520Z,17.44
2022-10-17T19:01:06.403Z,17.50
2022-10-17T19:03:33.491Z,17.51
2022-10-17T19:06:02.229Z,17.48
2022-10-17T19:08:28.931Z,17.45
2022-10-17T19:10:55.610Z,17.38
2022-10-17T19:13:22.374Z,17.38
2022-10-17T19:15:51.883Z,17.37
2022-10-17T19:18:21.341Z,17.30
2022-10-17T19:20:47.968Z,17.31
2022-10-17T19:23:14.583Z,17.34
2022-10-17T19:25:41.196Z,17.32
2022-10-17T19:28:07.977Z,17.17
2022-10-17T19:30:34.569Z,17.23
2022-10-17T19:33:01.220Z,17.14
2022-10-17T19:35:27.799Z,17.20
2022-10-17T19:37:54.774Z,17.21
2022-10-17T19:40:21.392Z,17.17
2022-10-17T19:42:48.082Z,17.14
2022-10-17T19:45:14.796Z,17.10
2022-10-17T19:47:43.905Z,17.14
2022-10-17T19:50:10.534Z,17.08
2022-10-17T19:52:37.118Z,17.13
2022-10-17T19:55:03.879Z,17.10
2022-10-17T19:57:30.524Z,17.02
2022-10-17T19:59:58.051Z,17.04
2022-10-17T20:02:24.618Z,17.00
2022-10-17T20:04:54.670Z,16.83
2022-10-17T20:07:33.158Z,16.86
2022-10-17T20:10:00.117Z,16.92
2022-10-17T20:12:26.660Z,16.77
2022-10-17T20:14:53.241Z,16.80
2022-10-17T20:17:19.878Z,16.71
2022-10-17T20:19:47.149Z,16.76
2022-10-17T20:22:13.815Z,16.75
2022-10-17T20:24:40.361Z,16.75
2022-10-17T20:27:06.927Z,16.76
2022-10-17T20:29:33.552Z,16.69
2022-10-17T20:32:00.280Z,16.69
2022-10-17T20:34:26.999Z,16.62
2022-10-17T20:36:53.717Z,16.55
2022-10-17T20:39:21.173Z,16.49
2022-10-17T20:41:48.004Z,16.46
2022-10-17T20:44:14.811Z,16.52
2022-10-17T20:46:48.704Z,16.45
2022-10-17T20:49:24.476Z,16.38
2022-10-17T20:51:51.009Z,16.35
2022-10-17T20:54:17.565Z,16.38
2022-10-17T20:56:44.153Z,16.28
2022-10-17T20:59:12.820Z,16.15
2022-10-17T21:01:39.445Z,16.03
2022-10-17T21:04:33.336Z,16.00
2022-10-17T21:06:53.643Z,16.00
2022-10-17T21:09:21.079Z,15.90
2022-10-17T21:11:48.479Z,15.97
2022-10-17T21:14:16.787Z,15.91
2022-10-17T21:16:43.716Z,15.94
2022-10-17T21:19:11.501Z,15.94
2022-10-17T21:21:39.566Z,15.84
2022-10-17T21:24:12.482Z,15.80
2022-10-17T21:26:39.697Z,15.77
2022-10-17T21:29:07.336Z,15.74
2022-10-17T21:31:36.341Z,15.76
2022-10-17T21:34:09.312Z,15.78
2022-10-17T21:36:36.615Z,15.83
2022-10-17T21:39:03.767Z,15.94
2022-10-17T21:41:31.481Z,15.86
2022-10-17T21:44:04.437Z,15.90
2022-10-17T21:46:31.049Z,15.80
2022-10-17T21:48:59.330Z,15.78
2022-10-17T21:51:27.010Z,15.76
2022-10-17T21:53:55.112Z,15.76
2022-10-17T21:56:23.610Z,15.78
2022-10-17T21:58:51.019Z,15.74
2022-10-17T22:01:26.932Z,15.81
2022-10-17T22:03:56.769Z,15.80
2022-10-17T22:06:39.177Z,15.78
2022-10-17T22:09:15.094Z,15.80
2022-10-17T22:11:43.942Z,15.76
2022-10-17T22:14:15.212Z,15.84
2022-10-17T22:16:42.900Z,15.71
2022-10-17T22:19:11.011Z,15.71
2022-10-17T22:21:37.728Z,15.67
2022-10-17T22:24:07.143Z,15.76
2022-10-17T22:26:35.544Z,15.69
2022-10-17T22:29:04.446Z,15.66
2022-10-17T22:31:31.198Z,15.64
2022-10-17T22:33:57.845Z,15.64
2022-10-17T22:36:24.471Z,15.66
2022-10-17T22:38:51.474Z,15.78
2022-10-17T22:41:18.338Z,15.83
2022-10-17T22:43:44.928Z,15.74
2022-10-17T22:46:13.866Z,15.69
2022-10-17T22:48:40.474Z,15.60
2022-10-17T22:51:07.475Z,15.60
2022-10-17T22:53:35.217Z,15.66
2022-10-17T22:56:03.214Z,15.76
2022-10-17T22:58:31.924Z,15.76
2022-10-17T23:00:58.609Z,15.71
2022-10-17T23:03:27.133Z,15.70
2022-10-17T23:05:54.393Z,15.66
2022-10-17T23:08:21.079Z,15.66
2022-10-17T23:10:48.361Z,15.71
2022-10-17T23:13:15.460Z,15.59
2022-10-17T23:15:42.904Z,15.53
2022-10-17T23:18:10.256Z,15.50
2022-10-17T23:20:37.536Z,15.54
2022-10-17T23:23:05.002Z,15.54
2022-10-17T23:25:33.956Z,15.60
2022-10-17T23:28:00.892Z,15.59
2022-10-17T23:30:27.760Z,15.57
2022-10-17T23:32:54.376Z,15.52
2022-10-17T23:35:20.962Z,15.52
2022-10-17T23:37:47.509Z,15.53
2022-10-17T23:40:14.043Z,15.49
2022-10-17T23:42:40.607Z,15.46
2022-10-17T23:45:07.989Z,15.43
2022-10-17T23:47:34.549Z,15.47
2022-10-17T23:50:01.270Z,15.54
2022-10-17T23:52:27.823Z,15.52
2022-10-17T23:54:54.380Z,15.54
